sensor_id;sensor_type;location;lat;lon;timestamp;pressure;altitude;pressure_sealevel;temperature;humidity
9676;BME280;4876;42.656;23.292;2023-04-27T00:01:18;94046.53;;;7.86;57.54
9676;BME280;4876;42.656;23.292;2023-04-27T00:03:46;94054.28;;;7.91;58.16
9676;BME280;4876;42.656;23.292;2023-04-27T00:06:13;94057.97;;;7.90;57.50
9676;BME280;4876;42.656;23.292;2023-04-27T00:08:40;94055.88;;;7.78;57.54
9676;BME280;4876;42.656;23.292;2023-04-27T00:11:06;94068.00;;;7.74;57.44
9676;BME280;4876;42.656;23.292;2023-04-27T00:13:33;93988.03;;;7.37;58.12
9676;BME280;4876;42.656;23.292;2023-04-27T00:16:00;94050.13;;;7.67;57.91
9676;BME280;4876;42.656;23.292;2023-04-27T00:18:28;94068.78;;;7.74;57.86
9676;BME280;4876;42.656;23.292;2023-04-27T00:20:56;94065.63;;;7.64;58.15
9676;BME280;4876;42.656;23.292;2023-04-27T00:23:23;94068.53;;;7.62;58.79
9676;BME280;4876;42.656;23.292;2023-04-27T00:25:50;94063.50;;;7.66;58.26
9676;BME280;4876;42.656;23.292;2023-04-27T00:28:17;94071.75;;;7.59;58.46
9676;BME280;4876;42.656;23.292;2023-04-27T00:30:44;94065.09;;;7.53;57.94
9676;BME280;4876;42.656;23.292;2023-04-27T00:33:11;94060.28;;;7.46;58.05
9676;BME280;4876;42.656;23.292;2023-04-27T00:35:37;94067.22;;;7.51;58.62
9676;BME280;4876;42.656;23.292;2023-04-27T00:38:08;94070.13;;;7.49;58.28
9676;BME280;4876;42.656;23.292;2023-04-27T00:40:35;94053.50;;;7.45;58.27
9676;BME280;4876;42.656;23.292;2023-04-27T00:43:02;94055.63;;;7.43;58.53
9676;BME280;4876;42.656;23.292;2023-04-27T00:45:29;94061.97;;;7.28;59.18
9676;BME280;4876;42.656;23.292;2023-04-27T00:47:56;94056.34;;;7.35;58.51
9676;BME280;4876;42.656;23.292;2023-04-27T00:50:27;94062.03;;;7.15;59.09
9676;BME280;4876;42.656;23.292;2023-04-27T00:52:55;94061.47;;;7.26;59.07
9676;BME280;4876;42.656;23.292;2023-04-27T00:55:23;94066.28;;;7.11;59.41
9676;BME280;4876;42.656;23.292;2023-04-27T00:57:50;94062.31;;;6.99;59.14
9676;BME280;4876;42.656;23.292;2023-04-27T01:00:17;94062.78;;;7.15;59.42
9676;BME280;4876;42.656;23.292;2023-04-27T01:02:44;94069.59;;;7.03;59.16
9676;BME280;4876;42.656;23.292;2023-04-27T01:05:13;94056.25;;;6.90;59.45
9676;BME280;4876;42.656;23.292;2023-04-27T01:07:41;94075.03;;;6.92;59.49
9676;BME280;4876;42.656;23.292;2023-04-27T01:10:08;94075.59;;;7.03;60.11
9676;BME280;4876;42.656;23.292;2023-04-27T01:12:36;94079.78;;;6.90;59.36
9676;BME280;4876;42.656;23.292;2023-04-27T01:15:05;94082.50;;;6.85;59.97
9676;BME280;4876;42.656;23.292;2023-04-27T01:17:31;94084.09;;;6.95;59.90
9676;BME280;4876;42.656;23.292;2023-04-27T01:19:58;94081.50;;;6.95;59.45
9676;BME280;4876;42.656;23.292;2023-04-27T01:22:26;94073.38;;;6.96;59.66
9676;BME280;4876;42.656;23.292;2023-04-27T01:24:54;94074.56;;;6.90;59.99
9676;BME280;4876;42.656;23.292;2023-04-27T01:27:21;94088.41;;;6.77;59.84
9676;BME280;4876;42.656;23.292;2023-04-27T01:29:48;94083.44;;;6.75;59.91
9676;BME280;4876;42.656;23.292;2023-04-27T01:32:15;94092.34;;;6.74;59.77
9676;BME280;4876;42.656;23.292;2023-04-27T01:34:42;94086.16;;;6.57;60.19
9676;BME280;4876;42.656;23.292;2023-04-27T01:37:09;94092.19;;;6.71;60.32
9676;BME280;4876;42.656;23.292;2023-04-27T01:39:36;94092.34;;;6.74;59.89
9676;BME280;4876;42.656;23.292;2023-04-27T01:42:05;94097.28;;;6.62;59.90
9676;BME280;4876;42.656;23.292;2023-04-27T01:44:31;94084.91;;;6.68;59.95
9676;BME280;4876;42.656;23.292;2023-04-27T01:46:58;94094.69;;;6.48;59.67
9676;BME280;4876;42.656;23.292;2023-04-27T01:49:26;94101.75;;;6.48;59.85
9676;BME280;4876;42.656;23.292;2023-04-27T01:51:52;94101.28;;;6.60;59.81
9676;BME280;4876;42.656;23.292;2023-04-27T01:54:19;94097.22;;;6.54;59.89
9676;BME280;4876;42.656;23.292;2023-04-27T01:56:46;94094.69;;;6.48;59.91
9676;BME280;4876;42.656;23.292;2023-04-27T01:59:14;94088.88;;;6.52;59.75
9676;BME280;4876;42.656;23.292;2023-04-27T02:01:41;94090.44;;;6.53;59.62
9676;BME280;4876;42.656;23.292;2023-04-27T02:04:08;94089.38;;;6.67;59.32
9676;BME280;4876;42.656;23.292;2023-04-27T02:06:35;94089.84;;;6.56;59.11
9676;BME280;4876;42.656;23.292;2023-04-27T02:09:02;94095.84;;;6.42;59.66
9676;BME280;4876;42.656;23.292;2023-04-27T02:11:28;94098.38;;;6.47;59.76
9676;BME280;4876;42.656;23.292;2023-04-27T02:13:56;94099.69;;;6.45;59.67
9676;BME280;4876;42.656;23.292;2023-04-27T02:16:24;94097.97;;;6.40;59.88
9676;BME280;4876;42.656;23.292;2023-04-27T02:18:51;94095.28;;;6.59;59.21
9676;BME280;4876;42.656;23.292;2023-04-27T02:21:19;94104.53;;;6.52;59.24
9676;BME280;4876;42.656;23.292;2023-04-27T02:23:46;94099.69;;;6.45;59.13
9676;BME280;4876;42.656;23.292;2023-04-27T02:26:16;94101.06;;;6.42;59.46
9676;BME280;4876;42.656;23.292;2023-04-27T02:28:43;94067.88;;;6.57;58.98
9676;BME280;4876;42.656;23.292;2023-04-27T02:31:10;94107.06;;;6.57;58.64
9676;BME280;4876;42.656;23.292;2023-04-27T02:33:39;94088.09;;;6.51;58.96
9676;BME280;4876;42.656;23.292;2023-04-27T02:36:07;94106.28;;;6.42;58.99
9676;BME280;4876;42.656;23.292;2023-04-27T02:38:34;94092.16;;;6.57;59.07
9676;BME280;4876;42.656;23.292;2023-04-27T02:41:01;94104.53;;;6.52;59.00
9676;BME280;4876;42.656;23.292;2023-04-27T02:43:27;94100.13;;;6.66;59.08
9676;BME280;4876;42.656;23.292;2023-04-27T02:45:54;94102.22;;;6.64;58.70
9676;BME280;4876;42.656;23.292;2023-04-27T02:48:21;94105.13;;;6.48;58.92
9676;BME280;4876;42.656;23.292;2023-04-27T02:50:49;94110.28;;;6.54;58.73
9676;BME280;4876;42.656;23.292;2023-04-27T02:53:16;94122.34;;;6.50;58.79
9676;BME280;4876;42.656;23.292;2023-04-27T02:55:44;94112.88;;;6.54;58.52
9676;BME280;4876;42.656;23.292;2023-04-27T02:58:12;94112.88;;;6.54;58.66
9676;BME280;4876;42.656;23.292;2023-04-27T03:00:39;94121.19;;;6.56;59.01
9676;BME280;4876;42.656;23.292;2023-04-27T03:03:06;94120.63;;;6.59;58.36
9676;BME280;4876;42.656;23.292;2023-04-27T03:05:34;94122.75;;;6.57;58.68
9676;BME280;4876;42.656;23.292;2023-04-27T03:08:03;94120.72;;;6.54;58.67
9676;BME280;4876;42.656;23.292;2023-04-27T03:10:30;94121.25;;;6.37;58.97
9676;BME280;4876;42.656;23.292;2023-04-27T03:12:56;94121.97;;;6.56;58.74
9676;BME280;4876;42.656;23.292;2023-04-27T03:15:23;94124.66;;;6.51;57.74
9676;BME280;4876;42.656;23.292;2023-04-27T03:17:50;94130.97;;;6.50;58.09
9676;BME280;4876;42.656;23.292;2023-04-27T03:20:16;94131.72;;;6.51;58.31
9676;BME280;4876;42.656;23.292;2023-04-27T03:22:43;94129.25;;;6.73;57.99
9676;BME280;4876;42.656;23.292;2023-04-27T03:25:12;94134.06;;;6.66;58.03
9676;BME280;4876;42.656;23.292;2023-04-27T03:27:38;94134.16;;;6.61;57.95
9676;BME280;4876;42.656;23.292;2023-04-27T03:30:07;94136.31;;;6.59;58.43
9676;BME280;4876;42.656;23.292;2023-04-27T03:32:35;94141.09;;;6.52;58.52
9676;BME280;4876;42.656;23.292;2023-04-27T03:35:02;94139.00;;;6.54;58.35
9676;BME280;4876;42.656;23.292;2023-04-27T03:37:28;94137.84;;;6.46;57.91
9676;BME280;4876;42.656;23.292;2023-04-27T03:39:55;94138.03;;;6.50;57.86
9676;BME280;4876;42.656;23.292;2023-04-27T03:42:23;94141.78;;;6.43;58.17
9676;BME280;4876;42.656;23.292;2023-04-27T03:44:50;94151.31;;;6.67;57.58
9676;BME280;4876;42.656;23.292;2023-04-27T03:47:17;94149.25;;;6.50;57.50
9676;BME280;4876;42.656;23.292;2023-04-27T03:49:44;94144.41;;;6.57;57.54
9676;BME280;4876;42.656;23.292;2023-04-27T03:52:11;94150.31;;;6.63;57.59
9676;BME280;4876;42.656;23.292;2023-04-27T03:54:37;94152.25;;;6.57;57.82
9676;BME280;4876;42.656;23.292;2023-04-27T03:57:04;94159.13;;;6.67;57.07
9676;BME280;4876;42.656;23.292;2023-04-27T03:59:32;94158.06;;;6.54;56.76
9676;BME280;4876;42.656;23.292;2023-04-27T04:01:59;94147.53;;;6.59;56.83
9676;BME280;4876;42.656;23.292;2023-04-27T04:04:26;94167.22;;;6.52;56.63
9676;BME280;4876;42.656;23.292;2023-04-27T04:06:53;94174.50;;;6.55;56.89
9676;BME280;4876;42.656;23.292;2023-04-27T04:09:20;94174.44;;;6.60;56.79
9676;BME280;4876;42.656;23.292;2023-04-27T04:11:47;94175.66;;;6.48;56.22
9676;BME280;4876;42.656;23.292;2023-04-27T04:14:14;94180.97;;;6.43;57.19
9676;BME280;4876;42.656;23.292;2023-04-27T04:16:42;94189.44;;;6.68;60.19
9676;BME280;4876;42.656;23.292;2023-04-27T04:19:09;94187.72;;;7.05;69.22
9676;BME280;4876;42.656;23.292;2023-04-27T04:21:36;94194.78;;;7.18;58.88
9676;BME280;4876;42.656;23.292;2023-04-27T04:24:03;94192.84;;;7.10;56.08
9676;BME280;4876;42.656;23.292;2023-04-27T04:26:30;94190.34;;;7.05;56.38
9676;BME280;4876;42.656;23.292;2023-04-27T04:28:57;94194.59;;;7.14;59.97
9676;BME280;4876;42.656;23.292;2023-04-27T04:31:25;94186.16;;;7.31;56.08
9676;BME280;4876;42.656;23.292;2023-04-27T04:33:53;94189.44;;;7.37;55.10
9676;BME280;4876;42.656;23.292;2023-04-27T04:36:20;94201.75;;;7.22;54.64
9676;BME280;4876;42.656;23.292;2023-04-27T04:38:47;94202.34;;;7.19;54.83
9676;BME280;4876;42.656;23.292;2023-04-27T04:41:14;94201.47;;;7.10;54.82
9676;BME280;4876;42.656;23.292;2023-04-27T04:43:41;94209.09;;;7.07;55.54
9676;BME280;4876;42.656;23.292;2023-04-27T04:46:07;94214.63;;;7.19;54.92
9676;BME280;4876;42.656;23.292;2023-04-27T04:48:34;94213.38;;;7.44;54.83
9676;BME280;4876;42.656;23.292;2023-04-27T04:51:03;94204.59;;;7.76;53.26
9676;BME280;4876;42.656;23.292;2023-04-27T04:53:30;94214.28;;;7.75;53.52
9676;BME280;4876;42.656;23.292;2023-04-27T04:55:57;94210.38;;;7.87;53.27
9676;BME280;4876;42.656;23.292;2023-04-27T04:58:33;94225.59;;;7.98;53.44
9676;BME280;4876;42.656;23.292;2023-04-27T05:00:59;94216.69;;;8.22;52.45
9676;BME280;4876;42.656;23.292;2023-04-27T05:03:27;94219.47;;;8.39;51.88
9676;BME280;4876;42.656;23.292;2023-04-27T05:05:53;94227.00;;;8.63;51.79
9676;BME280;4876;42.656;23.292;2023-04-27T05:08:22;94225.44;;;8.62;50.79
9676;BME280;4876;42.656;23.292;2023-04-27T05:10:49;94224.28;;;8.46;51.53
9676;BME280;4876;42.656;23.292;2023-04-27T05:13:15;94232.16;;;8.32;52.42
9676;BME280;4876;42.656;23.292;2023-04-27T05:15:42;94238.06;;;8.15;52.65
9676;BME280;4876;42.656;23.292;2023-04-27T05:18:09;94237.75;;;8.17;52.58
9676;BME280;4876;42.656;23.292;2023-04-27T05:20:37;94248.56;;;8.01;52.62
9676;BME280;4876;42.656;23.292;2023-04-27T05:23:04;94249.97;;;8.21;52.87
9676;BME280;4876;42.656;23.292;2023-04-27T05:25:33;94244.16;;;8.10;53.36
9676;BME280;4876;42.656;23.292;2023-04-27T05:28:05;94243.09;;;8.12;52.79
9676;BME280;4876;42.656;23.292;2023-04-27T05:30:32;94248.47;;;7.93;53.33
9676;BME280;4876;42.656;23.292;2023-04-27T05:32:59;94254.94;;;8.09;53.07
9676;BME280;4876;42.656;23.292;2023-04-27T05:35:26;94245.69;;;7.89;53.64
9676;BME280;4876;42.656;23.292;2023-04-27T05:37:52;94251.66;;;8.03;53.54
9676;BME280;4876;42.656;23.292;2023-04-27T05:40:19;94256.38;;;7.79;53.26
9676;BME280;4876;42.656;23.292;2023-04-27T05:42:48;94263.56;;;7.60;54.43
9676;BME280;4876;42.656;23.292;2023-04-27T05:45:15;94251.44;;;7.64;55.01
9676;BME280;4876;42.656;23.292;2023-04-27T05:47:42;94259.69;;;7.71;54.95
9676;BME280;4876;42.656;23.292;2023-04-27T05:50:09;94268.97;;;7.63;55.51
9676;BME280;4876;42.656;23.292;2023-04-27T05:52:36;94272.66;;;7.48;55.95
9676;BME280;4876;42.656;23.292;2023-04-27T05:55:04;94267.44;;;7.48;55.77
9676;BME280;4876;42.656;23.292;2023-04-27T05:57:32;94272.19;;;7.46;56.39
9676;BME280;4876;42.656;23.292;2023-04-27T06:00:00;94267.03;;;7.82;56.14
9676;BME280;4876;42.656;23.292;2023-04-27T06:02:27;94272.03;;;7.93;55.61
9676;BME280;4876;42.656;23.292;2023-04-27T06:04:53;94261.78;;;7.96;55.87
9676;BME280;4876;42.656;23.292;2023-04-27T06:07:20;94269.53;;;8.01;55.54
9676;BME280;4876;42.656;23.292;2023-04-27T06:09:47;94270.19;;;7.93;55.29
9676;BME280;4876;42.656;23.292;2023-04-27T06:12:14;94273.41;;;7.90;54.98
9676;BME280;4876;42.656;23.292;2023-04-27T06:14:41;94261.78;;;7.96;54.64
9676;BME280;4876;42.656;23.292;2023-04-27T06:17:09;94262.09;;;8.17;54.49
9676;BME280;4876;42.656;23.292;2023-04-27T06:19:37;94266.44;;;8.35;54.15
9676;BME280;4876;42.656;23.292;2023-04-27T06:22:03;94268.19;;;8.26;54.54
9676;BME280;4876;42.656;23.292;2023-04-27T06:24:30;94263.41;;;8.42;54.15
9676;BME280;4876;42.656;23.292;2023-04-27T06:26:57;94257.78;;;8.35;53.74
9676;BME280;4876;42.656;23.292;2023-04-27T06:29:24;94256.50;;;8.46;54.33
9676;BME280;4876;42.656;23.292;2023-04-27T06:31:50;94257.16;;;8.52;53.38
9676;BME280;4876;42.656;23.292;2023-04-27T06:34:18;94260.41;;;8.80;53.06
9676;BME280;4876;42.656;23.292;2023-04-27T06:36:45;94261.06;;;8.85;52.69
9676;BME280;4876;42.656;23.292;2023-04-27T06:39:12;94258.63;;;8.89;52.35
9676;BME280;4876;42.656;23.292;2023-04-27T06:41:39;94252.41;;;9.07;52.21
9676;BME280;4876;42.656;23.292;2023-04-27T06:44:06;94259.84;;;9.23;52.22
9676;BME280;4876;42.656;23.292;2023-04-27T06:46:32;94259.56;;;9.24;51.80
9676;BME280;4876;42.656;23.292;2023-04-27T06:48:59;94263.91;;;8.98;51.39
9676;BME280;4876;42.656;23.292;2023-04-27T06:51:28;94250.13;;;9.23;52.12
9676;BME280;4876;42.656;23.292;2023-04-27T06:53:56;94261.72;;;9.31;51.13
9676;BME280;4876;42.656;23.292;2023-04-27T06:56:22;94258.31;;;9.22;52.12
9676;BME280;4876;42.656;23.292;2023-04-27T06:58:49;94256.53;;;9.39;51.97
9676;BME280;4876;42.656;23.292;2023-04-27T07:01:16;94258.31;;;9.22;52.78
9676;BME280;4876;42.656;23.292;2023-04-27T07:03:43;94259.59;;;9.33;51.61
9676;BME280;4876;42.656;23.292;2023-04-27T07:06:10;94252.22;;;9.43;51.13
9676;BME280;4876;42.656;23.292;2023-04-27T07:08:39;94251.84;;;9.28;51.87
9676;BME280;4876;42.656;23.292;2023-04-27T07:11:06;94252.56;;;9.11;51.45
9676;BME280;4876;42.656;23.292;2023-04-27T07:13:33;94254.09;;;9.12;52.28
9676;BME280;4876;42.656;23.292;2023-04-27T07:15:59;94256.94;;;8.93;53.06
9676;BME280;4876;42.656;23.292;2023-04-27T07:18:26;94253.19;;;9.16;51.49
9676;BME280;4876;42.656;23.292;2023-04-27T07:20:53;94243.53;;;9.26;51.92
9676;BME280;4876;42.656;23.292;2023-04-27T07:23:22;94243.72;;;9.38;50.82
9676;BME280;4876;42.656;23.292;2023-04-27T07:25:50;94243.22;;;9.84;50.07
9676;BME280;4876;42.656;23.292;2023-04-27T07:28:18;94229.19;;;10.06;49.30
9676;BME280;4876;42.656;23.292;2023-04-27T07:30:45;94247.56;;;10.15;49.25
9676;BME280;4876;42.656;23.292;2023-04-27T07:33:12;94246.50;;;10.07;50.54
9676;BME280;4876;42.656;23.292;2023-04-27T07:35:39;94242.94;;;10.20;49.80
9676;BME280;4876;42.656;23.292;2023-04-27T07:38:06;94249.47;;;10.40;50.29
9676;BME280;4876;42.656;23.292;2023-04-27T07:40:33;94192.09;;;10.51;49.21
9676;BME280;4876;42.656;23.292;2023-04-27T07:43:02;94248.31;;;10.93;47.62
9676;BME280;4876;42.656;23.292;2023-04-27T07:45:29;94244.44;;;10.91;46.93
9676;BME280;4876;42.656;23.292;2023-04-27T07:47:57;94238.72;;;10.89;46.96
9676;BME280;4876;42.656;23.292;2023-04-27T07:50:25;94237.47;;;10.95;47.09
9676;BME280;4876;42.656;23.292;2023-04-27T07:52:53;94239.63;;;10.93;46.78
9676;BME280;4876;42.656;23.292;2023-04-27T07:55:20;94239.34;;;10.94;47.41
9676;BME280;4876;42.656;23.292;2023-04-27T07:57:48;94236.00;;;10.59;47.25
9676;BME280;4876;42.656;23.292;2023-04-27T08:00:16;94236.16;;;10.63;45.92
9676;BME280;4876;42.656;23.292;2023-04-27T08:02:43;94244.94;;;10.75;47.53
9676;BME280;4876;42.656;23.292;2023-04-27T08:05:10;94241.38;;;10.11;47.98
9676;BME280;4876;42.656;23.292;2023-04-27T08:07:37;94244.03;;;10.19;48.71
9676;BME280;4876;42.656;23.292;2023-04-27T08:10:06;94252.38;;;10.21;48.37
9676;BME280;4876;42.656;23.292;2023-04-27T08:12:33;94245.13;;;10.36;47.01
9676;BME280;4876;42.656;23.292;2023-04-27T08:15:00;94246.69;;;10.45;48.35
9676;BME280;4876;42.656;23.292;2023-04-27T08:17:28;94253.78;;;10.71;48.01
9676;BME280;4876;42.656;23.292;2023-04-27T08:19:54;94246.19;;;10.69;47.58
9676;BME280;4876;42.656;23.292;2023-04-27T08:22:21;94253.78;;;10.36;47.02
9676;BME280;4876;42.656;23.292;2023-04-27T08:24:48;94252.41;;;10.56;47.82
9676;BME280;4876;42.656;23.292;2023-04-27T08:27:15;94249.75;;;10.47;47.20
9676;BME280;4876;42.656;23.292;2023-04-27T08:29:44;94242.78;;;10.60;47.46
9676;BME280;4876;42.656;23.292;2023-04-27T08:32:12;94244.19;;;10.66;47.09
9676;BME280;4876;42.656;23.292;2023-04-27T08:34:58;94246.19;;;10.61;47.05
9676;BME280;4876;42.656;23.292;2023-04-27T08:37:24;94242.94;;;10.81;47.01
9676;BME280;4876;42.656;23.292;2023-04-27T08:39:51;94245.16;;;10.44;48.38
9676;BME280;4876;42.656;23.292;2023-04-27T08:42:18;94246.03;;;10.74;47.42
9676;BME280;4876;42.656;23.292;2023-04-27T08:44:45;94252.13;;;11.13;46.75
9676;BME280;4876;42.656;23.292;2023-04-27T08:47:12;94248.84;;;11.25;45.29
9676;BME280;4876;42.656;23.292;2023-04-27T08:49:38;94228.03;;;11.41;46.10
9676;BME280;4876;42.656;23.292;2023-04-27T08:52:11;94251.69;;;11.88;45.20
9676;BME280;4876;42.656;23.292;2023-04-27T08:54:38;94244.16;;;11.69;44.34
9676;BME280;4876;42.656;23.292;2023-04-27T08:57:09;94254.91;;;11.93;44.73
9676;BME280;4876;42.656;23.292;2023-04-27T08:59:37;94255.03;;;11.97;45.07
9676;BME280;4876;42.656;23.292;2023-04-27T09:02:04;94245.19;;;12.27;43.69
9676;BME280;4876;42.656;23.292;2023-04-27T09:04:38;94248.56;;;12.36;43.41
9676;BME280;4876;42.656;23.292;2023-04-27T09:07:13;94225.06;;;12.22;43.39
9676;BME280;4876;42.656;23.292;2023-04-27T09:09:41;94239.59;;;12.49;43.38
9676;BME280;4876;42.656;23.292;2023-04-27T09:12:15;94239.41;;;12.33;43.16
9676;BME280;4876;42.656;23.292;2023-04-27T09:14:42;94242.09;;;12.46;43.10
9676;BME280;4876;42.656;23.292;2023-04-27T09:17:09;94242.72;;;12.30;42.79
9676;BME280;4876;42.656;23.292;2023-04-27T09:19:36;94238.84;;;12.07;42.66
9676;BME280;4876;42.656;23.292;2023-04-27T09:22:04;94239.47;;;12.46;41.89
9676;BME280;4876;42.656;23.292;2023-04-27T09:24:33;94242.41;;;12.65;42.20
9676;BME280;4876;42.656;23.292;2023-04-27T09:27:00;94231.31;;;12.72;43.19
9676;BME280;4876;42.656;23.292;2023-04-27T09:29:34;94233.34;;;12.87;43.10
9676;BME280;4876;42.656;23.292;2023-04-27T09:32:01;94223.38;;;12.92;41.58
9676;BME280;4876;42.656;23.292;2023-04-27T09:34:38;94220.28;;;13.03;41.71
9676;BME280;4876;42.656;23.292;2023-04-27T09:37:06;94221.47;;;12.81;41.42
9676;BME280;4876;42.656;23.292;2023-04-27T09:39:35;94208.88;;;12.99;40.82
9676;BME280;4876;42.656;23.292;2023-04-27T09:42:02;94218.06;;;12.80;41.84
9676;BME280;4876;42.656;23.292;2023-04-27T09:44:30;94215.44;;;12.92;42.05
9676;BME280;4876;42.656;23.292;2023-04-27T09:46:58;94218.13;;;12.72;41.88
9676;BME280;4876;42.656;23.292;2023-04-27T09:49:26;94213.63;;;12.72;41.88
9676;BME280;4876;42.656;23.292;2023-04-27T09:51:54;94207.31;;;12.98;42.07
9676;BME280;4876;42.656;23.292;2023-04-27T09:54:26;94200.97;;;13.11;42.95
9676;BME280;4876;42.656;23.292;2023-04-27T09:57:03;94206.97;;;12.87;41.26
9676;BME280;4876;42.656;23.292;2023-04-27T09:59:43;94210.00;;;13.22;40.33
9676;BME280;4876;42.656;23.292;2023-04-27T10:02:17;94206.50;;;13.42;40.51
9676;BME280;4876;42.656;23.292;2023-04-27T10:05:09;94196.38;;;13.57;38.77
9676;BME280;4876;42.656;23.292;2023-04-27T10:07:43;94203.63;;;13.72;39.43
9676;BME280;4876;42.656;23.292;2023-04-27T10:10:15;94199.09;;;13.72;39.56
9676;BME280;4876;42.656;23.292;2023-04-27T10:12:54;94202.28;;;13.78;39.31
9676;BME280;4876;42.656;23.292;2023-04-27T10:15:25;94184.28;;;13.31;38.85
9676;BME280;4876;42.656;23.292;2023-04-27T10:17:52;94193.94;;;13.64;38.21
9676;BME280;4876;42.656;23.292;2023-04-27T10:20:28;94198.22;;;13.81;38.55
9676;BME280;4876;42.656;23.292;2023-04-27T10:22:55;94194.34;;;13.90;38.41
9676;BME280;4876;42.656;23.292;2023-04-27T10:25:25;94204.91;;;13.90;37.58
9676;BME280;4876;42.656;23.292;2023-04-27T10:27:56;94186.38;;;14.02;37.42
9676;BME280;4876;42.656;23.292;2023-04-27T10:30:24;94178.66;;;14.10;37.24
9676;BME280;4876;42.656;23.292;2023-04-27T10:32:52;94188.19;;;14.26;38.11
9676;BME280;4876;42.656;23.292;2023-04-27T10:35:20;94193.44;;;14.39;37.96
9676;BME280;4876;42.656;23.292;2023-04-27T10:37:47;94199.34;;;14.20;38.49
9676;BME280;4876;42.656;23.292;2023-04-27T10:40:14;94213.88;;;14.26;37.38
9676;BME280;4876;42.656;23.292;2023-04-27T10:42:44;94192.59;;;13.94;37.77
9676;BME280;4876;42.656;23.292;2023-04-27T10:45:12;94199.63;;;13.90;38.83
9676;BME280;4876;42.656;23.292;2023-04-27T10:47:40;94191.94;;;13.85;39.55
9676;BME280;4876;42.656;23.292;2023-04-27T10:50:08;94196.09;;;13.98;38.38
9676;BME280;4876;42.656;23.292;2023-04-27T10:52:40;94197.69;;;13.51;38.34
9676;BME280;4876;42.656;23.292;2023-04-27T10:55:15;94201.28;;;13.95;38.96
9676;BME280;4876;42.656;23.292;2023-04-27T10:57:48;94189.88;;;14.19;38.13
9676;BME280;4876;42.656;23.292;2023-04-27T11:00:23;94189.31;;;14.66;38.16
9676;BME280;4876;42.656;23.292;2023-04-27T11:02:50;94188.59;;;14.69;35.99
9676;BME280;4876;42.656;23.292;2023-04-27T11:05:18;94194.38;;;14.59;36.20
9676;BME280;4876;42.656;23.292;2023-04-27T11:07:46;94192.53;;;14.19;36.32
9676;BME280;4876;42.656;23.292;2023-04-27T11:10:14;94164.25;;;13.55;37.64
9676;BME280;4876;42.656;23.292;2023-04-27T11:12:42;94190.88;;;13.37;39.31
9676;BME280;4876;42.656;23.292;2023-04-27T11:15:09;94189.47;;;12.82;39.68
9676;BME280;4876;42.656;23.292;2023-04-27T11:17:38;94189.22;;;12.75;39.94
9676;BME280;4876;42.656;23.292;2023-04-27T11:20:06;94184.16;;;12.70;40.22
9676;BME280;4876;42.656;23.292;2023-04-27T11:22:42;94179.72;;;13.19;40.68
9676;BME280;4876;42.656;23.292;2023-04-27T11:25:10;94189.56;;;13.43;39.04
9676;BME280;4876;42.656;23.292;2023-04-27T11:27:37;94188.88;;;13.59;39.44
9676;BME280;4876;42.656;23.292;2023-04-27T11:30:16;94195.72;;;13.35;39.02
9676;BME280;4876;42.656;23.292;2023-04-27T11:32:45;94188.56;;;13.36;40.40
9676;BME280;4876;42.656;23.292;2023-04-27T11:35:12;94198.69;;;13.34;39.97
9676;BME280;4876;42.656;23.292;2023-04-27T11:37:39;94199.66;;;13.17;39.94
9676;BME280;4876;42.656;23.292;2023-04-27T11:40:07;94202.53;;;12.79;40.00
9676;BME280;4876;42.656;23.292;2023-04-27T11:42:35;94201.72;;;12.99;39.96
9676;BME280;4876;42.656;23.292;2023-04-27T11:45:03;94201.78;;;13.24;39.66
9676;BME280;4876;42.656;23.292;2023-04-27T11:47:32;94199.78;;;13.45;40.56
9676;BME280;4876;42.656;23.292;2023-04-27T11:50:03;94202.09;;;13.34;40.01
9676;BME280;4876;42.656;23.292;2023-04-27T11:52:30;94200.47;;;13.42;39.92
9676;BME280;4876;42.656;23.292;2023-04-27T11:54:58;94204.19;;;13.53;39.45
9676;BME280;4876;42.656;23.292;2023-04-27T11:57:26;94187.72;;;13.96;38.67
9676;BME280;4876;42.656;23.292;2023-04-27T11:59:55;94210.13;;;13.62;38.94
9676;BME280;4876;42.656;23.292;2023-04-27T12:02:22;94203.41;;;13.40;39.94
9676;BME280;4876;42.656;23.292;2023-04-27T12:04:49;94215.44;;;12.92;40.12
9676;BME280;4876;42.656;23.292;2023-04-27T12:07:18;94203.84;;;12.73;40.60
9676;BME280;4876;42.656;23.292;2023-04-27T12:09:45;94214.69;;;12.92;40.28
9676;BME280;4876;42.656;23.292;2023-04-27T12:12:12;94214.16;;;12.65;40.34
9676;BME280;4876;42.656;23.292;2023-04-27T12:14:41;94216.09;;;12.89;40.67
9676;BME280;4876;42.656;23.292;2023-04-27T12:17:08;94207.63;;;13.29;39.67
9676;BME280;4876;42.656;23.292;2023-04-27T12:19:34;94205.16;;;12.79;40.38
9676;BME280;4876;42.656;23.292;2023-04-27T12:22:01;94213.22;;;12.82;39.91
9676;BME280;4876;42.656;23.292;2023-04-27T12:24:30;94207.97;;;12.94;40.27
9676;BME280;4876;42.656;23.292;2023-04-27T12:26:57;94213.53;;;13.26;39.89
9676;BME280;4876;42.656;23.292;2023-04-27T12:29:24;94209.72;;;13.03;40.33
9676;BME280;4876;42.656;23.292;2023-04-27T12:31:50;94206.72;;;13.37;39.91
9676;BME280;4876;42.656;23.292;2023-04-27T12:34:17;94213.56;;;13.38;40.21
9676;BME280;4876;42.656;23.292;2023-04-27T12:36:44;94206.50;;;13.42;39.55
9676;BME280;4876;42.656;23.292;2023-04-27T12:39:12;94212.66;;;13.46;39.50
9676;BME280;4876;42.656;23.292;2023-04-27T12:41:41;94216.41;;;13.45;39.50
9676;BME280;4876;42.656;23.292;2023-04-27T12:44:08;94219.50;;;13.23;40.21
9676;BME280;4876;42.656;23.292;2023-04-27T12:46:36;94223.78;;;12.82;40.55
9676;BME280;4876;42.656;23.292;2023-04-27T12:49:02;94225.44;;;12.54;40.63
9676;BME280;4876;42.656;23.292;2023-04-27T12:51:31;94219.06;;;12.55;39.98
9676;BME280;4876;42.656;23.292;2023-04-27T12:53:58;94222.19;;;12.69;40.23
9676;BME280;4876;42.656;23.292;2023-04-27T12:56:25;94233.00;;;12.76;40.63
9676;BME280;4876;42.656;23.292;2023-04-27T12:58:53;94220.47;;;12.52;41.41
9676;BME280;4876;42.656;23.292;2023-04-27T13:01:21;94223.56;;;12.87;40.92
9676;BME280;4876;42.656;23.292;2023-04-27T13:03:50;94218.56;;;13.07;39.59
9676;BME280;4876;42.656;23.292;2023-04-27T13:06:18;94181.03;;;13.13;39.64
9676;BME280;4876;42.656;23.292;2023-04-27T13:08:44;94215.06;;;13.27;40.23
9676;BME280;4876;42.656;23.292;2023-04-27T13:11:11;94218.19;;;13.29;40.02
9676;BME280;4876;42.656;23.292;2023-04-27T13:13:38;94220.31;;;13.15;39.56
9676;BME280;4876;42.656;23.292;2023-04-27T13:16:07;94221.38;;;12.89;41.35
9676;BME280;4876;42.656;23.292;2023-04-27T13:18:33;94216.56;;;13.04;40.02
9676;BME280;4876;42.656;23.292;2023-04-27T13:23:31;94209.25;;;13.22;40.51